sensor_id;sensor_type;location;lat;lon;timestamp;temperature;humidity
55064;DHT22;40963;52.168;21.296;2024-03-08T00:01:15;-2.00;99.90
55064;DHT22;40963;52.168;21.296;2024-03-08T00:03:42;-2.00;99.90
55064;DHT22;40963;52.168;21.296;2024-03-08T00:06:07;-2.00;99.90
55064;DHT22;40963;52.168;21.296;2024-03-08T00:08:33;-2.00;99.90
55064;DHT22;40963;52.168;21.296;2024-03-08T00:10:58;-2.10;99.90
55064;DHT22;40963;52.168;21.296;2024-03-08T00:13:24;-2.10;99.90
55064;DHT22;40963;52.168;21.296;2024-03-08T00:15:50;-2.10;99.90
55064;DHT22;40963;52.168;21.296;2024-03-08T00:18:16;-2.10;99.90
55064;DHT22;40963;52.168;21.296;2024-03-08T00:20:42;-2.20;99.90
55064;DHT22;40963;52.168;21.296;2024-03-08T00:23:07;-2.20;99.90
55064;DHT22;40963;52.168;21.296;2024-03-08T00:25:33;-2.20;99.90
55064;DHT22;40963;52.168;21.296;2024-03-08T00:28:00;-2.20;99.90
55064;DHT22;40963;52.168;21.296;2024-03-08T00:30:25;-2.30;99.90
55064;DHT22;40963;52.168;21.296;2024-03-08T00:32:51;-2.30;99.90
55064;DHT22;40963;52.168;21.296;2024-03-08T00:35:16;-2.30;99.90
55064;DHT22;40963;52.168;21.296;2024-03-08T00:37:43;-2.30;99.90
55064;DHT22;40963;52.168;21.296;2024-03-08T00:40:12;-2.30;99.90
55064;DHT22;40963;52.168;21.296;2024-03-08T00:42:37;-2.40;99.90
55064;DHT22;40963;52.168;21.296;2024-03-08T00:45:04;-2.40;99.90
55064;DHT22;40963;52.168;21.296;2024-03-08T00:47:29;-2.40;99.90
55064;DHT22;40963;52.168;21.296;2024-03-08T00:49:55;-2.40;99.90
55064;DHT22;40963;52.168;21.296;2024-03-08T00:52:22;-2.40;99.90
55064;DHT22;40963;52.168;21.296;2024-03-08T00:54:49;-2.50;99.90
55064;DHT22;40963;52.168;21.296;2024-03-08T00:57:15;-2.50;99.90
55064;DHT22;40963;52.168;21.296;2024-03-08T00:59:40;-2.50;99.90
55064;DHT22;40963;52.168;21.296;2024-03-08T01:02:06;-2.50;99.90
55064;DHT22;40963;52.168;21.296;2024-03-08T01:04:31;-2.60;99.90
55064;DHT22;40963;52.168;21.296;2024-03-08T01:06:59;-2.60;99.90
55064;DHT22;40963;52.168;21.296;2024-03-08T01:09:25;-2.60;99.90
55064;DHT22;40963;52.168;21.296;2024-03-08T01:11:55;-2.60;99.90
55064;DHT22;40963;52.168;21.296;2024-03-08T01:14:22;-2.60;99.90
55064;DHT22;40963;52.168;21.296;2024-03-08T01:16:54;-2.70;99.90
55064;DHT22;40963;52.168;21.296;2024-03-08T01:19:20;-2.70;99.90
55064;DHT22;40963;52.168;21.296;2024-03-08T01:21:45;-2.70;99.90
55064;DHT22;40963;52.168;21.296;2024-03-08T01:24:11;-2.70;99.90
55064;DHT22;40963;52.168;21.296;2024-03-08T01:26:37;-2.70;99.90
55064;DHT22;40963;52.168;21.296;2024-03-08T01:29:03;-2.70;99.90
55064;DHT22;40963;52.168;21.296;2024-03-08T01:31:30;-2.80;99.90
55064;DHT22;40963;52.168;21.296;2024-03-08T01:33:56;-2.80;99.90
55064;DHT22;40963;52.168;21.296;2024-03-08T01:36:22;-2.80;99.90
55064;DHT22;40963;52.168;21.296;2024-03-08T01:38:48;-2.80;99.90
55064;DHT22;40963;52.168;21.296;2024-03-08T01:41:14;-2.90;99.90
55064;DHT22;40963;52.168;21.296;2024-03-08T01:43:41;-2.90;99.90
55064;DHT22;40963;52.168;21.296;2024-03-08T01:46:07;-2.90;99.90
55064;DHT22;40963;52.168;21.296;2024-03-08T01:48:34;-2.90;99.90
55064;DHT22;40963;52.168;21.296;2024-03-08T01:51:00;-2.90;99.90
55064;DHT22;40963;52.168;21.296;2024-03-08T01:53:26;-2.90;99.90
55064;DHT22;40963;52.168;21.296;2024-03-08T01:55:56;-3.00;99.90
55064;DHT22;40963;52.168;21.296;2024-03-08T01:58:22;-2.90;99.90
55064;DHT22;40963;52.168;21.296;2024-03-08T02:00:49;-3.00;99.90
55064;DHT22;40963;52.168;21.296;2024-03-08T02:03:15;-3.00;99.90
55064;DHT22;40963;52.168;21.296;2024-03-08T02:05:41;-3.00;99.90
55064;DHT22;40963;52.168;21.296;2024-03-08T02:08:06;-3.00;99.90
55064;DHT22;40963;52.168;21.296;2024-03-08T02:10:36;-3.10;99.90
55064;DHT22;40963;52.168;21.296;2024-03-08T02:13:02;-3.10;99.90
55064;DHT22;40963;52.168;21.296;2024-03-08T02:18:16;-3.20;99.90
55064;DHT22;40963;52.168;21.296;2024-03-08T02:20:43;-3.20;99.90
55064;DHT22;40963;52.168;21.296;2024-03-08T02:23:08;-3.20;99.90
55064;DHT22;40963;52.168;21.296;2024-03-08T02:25:35;-3.20;99.90
55064;DHT22;40963;52.168;21.296;2024-03-08T02:28:00;-3.20;99.90
55064;DHT22;40963;52.168;21.296;2024-03-08T02:30:26;-3.20;99.90
55064;DHT22;40963;52.168;21.296;2024-03-08T02:32:55;-3.30;99.90
55064;DHT22;40963;52.168;21.296;2024-03-08T02:35:20;-3.30;99.90
55064;DHT22;40963;52.168;21.296;2024-03-08T02:37:46;-3.30;99.90
55064;DHT22;40963;52.168;21.296;2024-03-08T02:40:13;-3.30;99.90
55064;DHT22;40963;52.168;21.296;2024-03-08T02:42:39;-3.30;99.90
55064;DHT22;40963;52.168;21.296;2024-03-08T02:45:05;-3.40;99.90
55064;DHT22;40963;52.168;21.296;2024-03-08T02:47:31;-3.40;99.90
55064;DHT22;40963;52.168;21.296;2024-03-08T02:49:57;-3.40;99.90
55064;DHT22;40963;52.168;21.296;2024-03-08T02:52:22;-3.40;99.90
55064;DHT22;40963;52.168;21.296;2024-03-08T02:54:48;-3.40;99.90
55064;DHT22;40963;52.168;21.296;2024-03-08T02:57:13;-3.40;99.90
55064;DHT22;40963;52.168;21.296;2024-03-08T02:59:40;-3.40;99.90
55064;DHT22;40963;52.168;21.296;2024-03-08T03:02:05;-3.40;99.90
55064;DHT22;40963;52.168;21.296;2024-03-08T03:04:32;-3.40;99.90
55064;DHT22;40963;52.168;21.296;2024-03-08T03:07:00;-3.40;99.90
55064;DHT22;40963;52.168;21.296;2024-03-08T03:09:26;-3.50;99.90
55064;DHT22;40963;52.168;21.296;2024-03-08T03:11:53;-3.40;99.90
55064;DHT22;40963;52.168;21.296;2024-03-08T03:14:21;-3.40;99.90
55064;DHT22;40963;52.168;21.296;2024-03-08T03:16:46;-3.50;99.90
55064;DHT22;40963;52.168;21.296;2024-03-08T03:19:12;-3.50;99.90
55064;DHT22;40963;52.168;21.296;2024-03-08T03:21:37;-3.50;99.90
55064;DHT22;40963;52.168;21.296;2024-03-08T03:24:04;-3.50;99.90
55064;DHT22;40963;52.168;21.296;2024-03-08T03:26:38;-3.50;99.90
55064;DHT22;40963;52.168;21.296;2024-03-08T03:29:05;-3.50;99.90
55064;DHT22;40963;52.168;21.296;2024-03-08T03:31:31;-3.50;99.90
55064;DHT22;40963;52.168;21.296;2024-03-08T03:33:57;-3.50;99.90
55064;DHT22;40963;52.168;21.296;2024-03-08T03:36:27;-3.50;99.90
55064;DHT22;40963;52.168;21.296;2024-03-08T03:38:56;-3.60;99.90
55064;DHT22;40963;52.168;21.296;2024-03-08T03:41:35;-3.60;99.90
55064;DHT22;40963;52.168;21.296;2024-03-08T03:44:00;-3.60;99.90
55064;DHT22;40963;52.168;21.296;2024-03-08T03:46:26;-3.60;99.90
55064;DHT22;40963;52.168;21.296;2024-03-08T03:48:53;-3.70;99.90
55064;DHT22;40963;52.168;21.296;2024-03-08T03:51:18;-3.70;99.90
55064;DHT22;40963;52.168;21.296;2024-03-08T03:53:45;-3.70;99.90
55064;DHT22;40963;52.168;21.296;2024-03-08T03:56:10;-3.70;99.90
55064;DHT22;40963;52.168;21.296;2024-03-08T03:58:36;-3.70;99.90
55064;DHT22;40963;52.168;21.296;2024-03-08T04:01:04;-3.70;99.90
55064;DHT22;40963;52.168;21.296;2024-03-08T04:03:30;-3.80;99.90
55064;DHT22;40963;52.168;21.296;2024-03-08T04:05:55;-3.80;99.90
55064;DHT22;40963;52.168;21.296;2024-03-08T04:08:21;-3.80;99.90
55064;DHT22;40963;52.168;21.296;2024-03-08T04:10:46;-3.80;99.90
55064;DHT22;40963;52.168;21.296;2024-03-08T04:13:12;-3.80;99.90
55064;DHT22;40963;52.168;21.296;2024-03-08T04:15:37;-3.80;99.90
55064;DHT22;40963;52.168;21.296;2024-03-08T04:18:03;-3.80;99.90
55064;DHT22;40963;52.168;21.296;2024-03-08T04:20:29;-3.80;99.90
55064;DHT22;40963;52.168;21.296;2024-03-08T04:22:55;-3.90;99.90
55064;DHT22;40963;52.168;21.296;2024-03-08T04:25:21;-3.90;99.90
55064;DHT22;40963;52.168;21.296;2024-03-08T04:27:47;-3.90;99.90
55064;DHT22;40963;52.168;21.296;2024-03-08T04:30:14;-3.80;99.90
55064;DHT22;40963;52.168;21.296;2024-03-08T04:32:39;-3.90;99.90
55064;DHT22;40963;52.168;21.296;2024-03-08T04:35:06;-3.90;99.90
55064;DHT22;40963;52.168;21.296;2024-03-08T04:37:32;-3.90;99.90
55064;DHT22;40963;52.168;21.296;2024-03-08T04:39:58;-3.90;99.90
55064;DHT22;40963;52.168;21.296;2024-03-08T04:42:24;-3.90;99.90
55064;DHT22;40963;52.168;21.296;2024-03-08T04:44:50;-3.90;99.90
55064;DHT22;40963;52.168;21.296;2024-03-08T04:47:16;-4.00;99.90
55064;DHT22;40963;52.168;21.296;2024-03-08T04:49:43;-4.00;99.90
55064;DHT22;40963;52.168;21.296;2024-03-08T04:52:08;-4.00;99.90
55064;DHT22;40963;52.168;21.296;2024-03-08T04:54:34;-4.00;99.90
55064;DHT22;40963;52.168;21.296;2024-03-08T04:56:59;-4.00;99.90
55064;DHT22;40963;52.168;21.296;2024-03-08T04:59:26;-4.00;99.90
55064;DHT22;40963;52.168;21.296;2024-03-08T05:01:52;-4.10;99.90
55064;DHT22;40963;52.168;21.296;2024-03-08T05:04:17;-4.10;99.90
55064;DHT22;40963;52.168;21.296;2024-03-08T05:06:43;-4.10;99.90
55064;DHT22;40963;52.168;21.296;2024-03-08T05:09:08;-4.10;99.90
55064;DHT22;40963;52.168;21.296;2024-03-08T05:11:43;-4.10;99.90
55064;DHT22;40963;52.168;21.296;2024-03-08T05:14:13;-4.20;99.90
55064;DHT22;40963;52.168;21.296;2024-03-08T05:16:46;-4.10;99.90
55064;DHT22;40963;52.168;21.296;2024-03-08T05:19:15;-4.10;99.90
55064;DHT22;40963;52.168;21.296;2024-03-08T05:21:47;-4.10;99.90
55064;DHT22;40963;52.168;21.296;2024-03-08T05:24:13;-4.10;99.90
55064;DHT22;40963;52.168;21.296;2024-03-08T05:26:40;-4.10;99.90
55064;DHT22;40963;52.168;21.296;2024-03-08T05:29:07;-4.10;99.90
55064;DHT22;40963;52.168;21.296;2024-03-08T05:31:43;-4.10;99.90
55064;DHT22;40963;52.168;21.296;2024-03-08T05:34:10;-4.10;99.90
55064;DHT22;40963;52.168;21.296;2024-03-08T05:36:36;-4.10;99.90
55064;DHT22;40963;52.168;21.296;2024-03-08T05:39:02;-4.10;99.90
55064;DHT22;40963;52.168;21.296;2024-03-08T05:41:28;-4.00;99.90
55064;DHT22;40963;52.168;21.296;2024-03-08T05:43:53;-4.00;99.90
55064;DHT22;40963;52.168;21.296;2024-03-08T05:46:19;-4.00;99.90
55064;DHT22;40963;52.168;21.296;2024-03-08T05:48:44;-4.00;99.90
55064;DHT22;40963;52.168;21.296;2024-03-08T05:51:10;-3.90;99.90
55064;DHT22;40963;52.168;21.296;2024-03-08T05:53:36;-3.90;99.90
55064;DHT22;40963;52.168;21.296;2024-03-08T05:56:01;-3.80;99.90
55064;DHT22;40963;52.168;21.296;2024-03-08T05:58:27;-3.80;99.90
55064;DHT22;40963;52.168;21.296;2024-03-08T06:00:55;-3.70;99.90
55064;DHT22;40963;52.168;21.296;2024-03-08T06:03:21;-3.60;99.90
55064;DHT22;40963;52.168;21.296;2024-03-08T06:05:48;-3.60;99.90
55064;DHT22;40963;52.168;21.296;2024-03-08T06:08:13;-3.60;99.90
55064;DHT22;40963;52.168;21.296;2024-03-08T06:10:40;-3.50;99.90
55064;DHT22;40963;52.168;21.296;2024-03-08T06:13:05;-3.50;99.90
55064;DHT22;40963;52.168;21.296;2024-03-08T06:15:31;-3.40;99.90
55064;DHT22;40963;52.168;21.296;2024-03-08T06:17:57;-3.40;99.90
55064;DHT22;40963;52.168;21.296;2024-03-08T06:20:23;-3.30;99.90
55064;DHT22;40963;52.168;21.296;2024-03-08T06:22:51;-3.30;99.90
55064;DHT22;40963;52.168;21.296;2024-03-08T06:25:17;-3.20;99.90
55064;DHT22;40963;52.168;21.296;2024-03-08T06:27:43;-3.10;99.90
55064;DHT22;40963;52.168;21.296;2024-03-08T06:30:10;-3.00;99.90
55064;DHT22;40963;52.168;21.296;2024-03-08T06:32:36;-2.90;99.90
55064;DHT22;40963;52.168;21.296;2024-03-08T06:35:03;-2.80;99.90
55064;DHT22;40963;52.168;21.296;2024-03-08T06:37:34;-2.70;99.90
55064;DHT22;40963;52.168;21.296;2024-03-08T06:40:00;-2.60;99.90
55064;DHT22;40963;52.168;21.296;2024-03-08T06:42:29;-2.50;99.90
55064;DHT22;40963;52.168;21.296;2024-03-08T06:44:59;-2.40;99.90
55064;DHT22;40963;52.168;21.296;2024-03-08T06:47:30;-2.30;99.90
55064;DHT22;40963;52.168;21.296;2024-03-08T06:49:55;-2.10;99.90
55064;DHT22;40963;52.168;21.296;2024-03-08T06:52:21;-2.00;99.90
55064;DHT22;40963;52.168;21.296;2024-03-08T06:54:47;-1.90;99.90
55064;DHT22;40963;52.168;21.296;2024-03-08T06:57:13;-1.80;99.90
55064;DHT22;40963;52.168;21.296;2024-03-08T06:59:39;-1.60;99.90
55064;DHT22;40963;52.168;21.296;2024-03-08T07:02:05;-1.50;99.90
55064;DHT22;40963;52.168;21.296;2024-03-08T07:04:30;-1.40;99.90
55064;DHT22;40963;52.168;21.296;2024-03-08T07:06:56;-1.30;99.90
55064;DHT22;40963;52.168;21.296;2024-03-08T07:09:25;-1.20;99.90
55064;DHT22;40963;52.168;21.296;2024-03-08T07:11:51;-1.00;99.90
55064;DHT22;40963;52.168;21.296;2024-03-08T07:14:23;-0.90;99.90
55064;DHT22;40963;52.168;21.296;2024-03-08T07:16:49;-0.70;99.90
55064;DHT22;40963;52.168;21.296;2024-03-08T07:19:15;-0.60;99.90
55064;DHT22;40963;52.168;21.296;2024-03-08T07:21:41;-0.40;99.90
55064;DHT22;40963;52.168;21.296;2024-03-08T07:24:07;-0.30;99.90
55064;DHT22;40963;52.168;21.296;2024-03-08T07:26:45;-0.10;99.90
55064;DHT22;40963;52.168;21.296;2024-03-08T07:29:17;0.00;99.90
55064;DHT22;40963;52.168;21.296;2024-03-08T07:31:43;0.20;99.90
55064;DHT22;40963;52.168;21.296;2024-03-08T07:34:27;0.40;99.90
55064;DHT22;40963;52.168;21.296;2024-03-08T07:36:55;0.50;99.90
55064;DHT22;40963;52.168;21.296;2024-03-08T07:39:21;0.60;99.90
55064;DHT22;40963;52.168;21.296;2024-03-08T07:41:49;0.80;99.90
55064;DHT22;40963;52.168;21.296;2024-03-08T07:44:18;0.90;99.90
55064;DHT22;40963;52.168;21.296;2024-03-08T07:46:43;1.10;99.90
55064;DHT22;40963;52.168;21.296;2024-03-08T07:49:09;1.20;99.90
55064;DHT22;40963;52.168;21.296;2024-03-08T07:51:37;1.30;99.90
55064;DHT22;40963;52.168;21.296;2024-03-08T07:54:02;1.40;99.90
55064;DHT22;40963;52.168;21.296;2024-03-08T07:56:30;1.60;99.90
55064;DHT22;40963;52.168;21.296;2024-03-08T07:58:56;1.70;99.90
55064;DHT22;40963;52.168;21.296;2024-03-08T08:01:21;1.90;99.90
55064;DHT22;40963;52.168;21.296;2024-03-08T08:03:47;2.00;99.90
55064;DHT22;40963;52.168;21.296;2024-03-08T08:06:15;2.20;99.90
55064;DHT22;40963;52.168;21.296;2024-03-08T08:08:44;2.40;99.90
55064;DHT22;40963;52.168;21.296;2024-03-08T08:11:10;2.50;99.90
55064;DHT22;40963;52.168;21.296;2024-03-08T08:13:36;2.60;99.90
55064;DHT22;40963;52.168;21.296;2024-03-08T08:16:03;2.70;99.90
55064;DHT22;40963;52.168;21.296;2024-03-08T08:18:29;2.90;99.90
55064;DHT22;40963;52.168;21.296;2024-03-08T08:20:55;3.00;99.90
55064;DHT22;40963;52.168;21.296;2024-03-08T08:23:21;3.10;99.90
55064;DHT22;40963;52.168;21.296;2024-03-08T08:25:47;3.30;99.90
55064;DHT22;40963;52.168;21.296;2024-03-08T08:28:16;3.50;99.80
55064;DHT22;40963;52.168;21.296;2024-03-08T08:30:45;3.60;97.40
55064;DHT22;40963;52.168;21.296;2024-03-08T08:33:11;3.70;95.70
55064;DHT22;40963;52.168;21.296;2024-03-08T08:35:37;3.80;94.30
55064;DHT22;40963;52.168;21.296;2024-03-08T08:38:04;4.00;93.00
55064;DHT22;40963;52.168;21.296;2024-03-08T08:40:29;4.10;92.50
55064;DHT22;40963;52.168;21.296;2024-03-08T08:42:57;4.20;90.90
55064;DHT22;40963;52.168;21.296;2024-03-08T08:45:23;4.40;90.10
55064;DHT22;40963;52.168;21.296;2024-03-08T08:47:49;4.50;88.30
55064;DHT22;40963;52.168;21.296;2024-03-08T08:50:15;4.60;86.20
55064;DHT22;40963;52.168;21.296;2024-03-08T08:52:41;4.70;85.90
55064;DHT22;40963;52.168;21.296;2024-03-08T08:55:10;4.80;85.00
55064;DHT22;40963;52.168;21.296;2024-03-08T08:57:40;5.00;84.20
55064;DHT22;40963;52.168;21.296;2024-03-08T09:00:06;5.20;82.50
55064;DHT22;40963;52.168;21.296;2024-03-08T09:02:33;5.20;79.70
55064;DHT22;40963;52.168;21.296;2024-03-08T09:04:59;5.30;78.50
55064;DHT22;40963;52.168;21.296;2024-03-08T09:07:26;5.40;78.20
55064;DHT22;40963;52.168;21.296;2024-03-08T09:09:53;5.50;76.40
55064;DHT22;40963;52.168;21.296;2024-03-08T09:12:22;5.60;75.20
55064;DHT22;40963;52.168;21.296;2024-03-08T09:14:48;5.70;74.00
55064;DHT22;40963;52.168;21.296;2024-03-08T09:17:14;5.70;73.00
55064;DHT22;40963;52.168;21.296;2024-03-08T09:19:43;5.70;72.80
55064;DHT22;40963;52.168;21.296;2024-03-08T09:22:09;5.80;73.20
55064;DHT22;40963;52.168;21.296;2024-03-08T09:24:34;5.90;73.10
55064;DHT22;40963;52.168;21.296;2024-03-08T09:27:00;6.10;73.50
55064;DHT22;40963;52.168;21.296;2024-03-08T09:29:25;6.30;72.40
55064;DHT22;40963;52.168;21.296;2024-03-08T09:31:51;6.40;71.10
55064;DHT22;40963;52.168;21.296;2024-03-08T09:34:17;6.50;69.60
55064;DHT22;40963;52.168;21.296;2024-03-08T09:36:44;6.50;69.40
55064;DHT22;40963;52.168;21.296;2024-03-08T09:39:09;6.50;68.50
55064;DHT22;40963;52.168;21.296;2024-03-08T09:41:35;6.60;68.80
55064;DHT22;40963;52.168;21.296;2024-03-08T09:44:01;6.70;68.20
55064;DHT22;40963;52.168;21.296;2024-03-08T09:46:27;6.90;68.70
55064;DHT22;40963;52.168;21.296;2024-03-08T09:48:53;7.00;67.40
55064;DHT22;40963;52.168;21.296;2024-03-08T09:51:22;7.00;67.60
55064;DHT22;40963;52.168;21.296;2024-03-08T09:53:52;7.10;67.40
55064;DHT22;40963;52.168;21.296;2024-03-08T09:56:19;7.20;66.90
55064;DHT22;40963;52.168;21.296;2024-03-08T09:58:45;7.30;65.90
55064;DHT22;40963;52.168;21.296;2024-03-08T10:01:39;7.30;65.00
55064;DHT22;40963;52.168;21.296;2024-03-08T10:04:05;7.20;63.70
55064;DHT22;40963;52.168;21.296;2024-03-08T10:06:31;7.20;64.20
55064;DHT22;40963;52.168;21.296;2024-03-08T10:08:57;7.30;63.80
55064;DHT22;40963;52.168;21.296;2024-03-08T10:11:24;7.30;64.20
55064;DHT22;40963;52.168;21.296;2024-03-08T10:13:50;7.40;64.20
55064;DHT22;40963;52.168;21.296;2024-03-08T10:16:16;7.50;63.50
55064;DHT22;40963;52.168;21.296;2024-03-08T10:18:47;7.50;62.50
55064;DHT22;40963;52.168;21.296;2024-03-08T10:21:13;7.60;62.70
55064;DHT22;40963;52.168;21.296;2024-03-08T10:23:40;7.70;61.80
55064;DHT22;40963;52.168;21.296;2024-03-08T10:28:44;7.70;60.80
55064;DHT22;40963;52.168;21.296;2024-03-08T10:31:10;7.80;60.60
55064;DHT22;40963;52.168;21.296;2024-03-08T10:33:35;7.80;59.40
55064;DHT22;40963;52.168;21.296;2024-03-08T10:36:03;7.80;59.00
55064;DHT22;40963;52.168;21.296;2024-03-08T10:38:31;7.80;59.00
55064;DHT22;40963;52.168;21.296;2024-03-08T10:41:01;7.80;58.80
55064;DHT22;40963;52.168;21.296;2024-03-08T10:43:33;7.80;58.50
55064;DHT22;40963;52.168;21.296;2024-03-08T10:46:29;7.70;57.70
55064;DHT22;40963;52.168;21.296;2024-03-08T10:48:55;7.60;57.40
55064;DHT22;40963;52.168;21.296;2024-03-08T10:51:24;7.60;57.10
55064;DHT22;40963;52.168;21.296;2024-03-08T10:53:50;7.60;57.80
55064;DHT22;40963;52.168;21.296;2024-03-08T10:56:17;7.80;58.00
55064;DHT22;40963;52.168;21.296;2024-03-08T10:58:43;8.00;57.60
55064;DHT22;40963;52.168;21.296;2024-03-08T11:01:09;8.10;57.70
55064;DHT22;40963;52.168;21.296;2024-03-08T11:06:06;8.40;56.60
55064;DHT22;40963;52.168;21.296;2024-03-08T11:08:33;8.40;55.30
55064;DHT22;40963;52.168;21.296;2024-03-08T11:11:01;8.30;54.60
55064;DHT22;40963;52.168;21.296;2024-03-08T11:13:36;8.20;54.20
55064;DHT22;40963;52.168;21.296;2024-03-08T11:16:07;8.10;53.70
55064;DHT22;40963;52.168;21.296;2024-03-08T11:18:35;8.10;53.80
55064;DHT22;40963;52.168;21.296;2024-03-08T11:21:18;8.10;53.80
55064;DHT22;40963;52.168;21.296;2024-03-08T11:24:02;8.20;53.80
55064;DHT22;40963;52.168;21.296;2024-03-08T11:26:31;8.40;53.60
55064;DHT22;40963;52.168;21.296;2024-03-08T11:32:11;8.70;52.50
55064;DHT22;40963;52.168;21.296;2024-03-08T11:34:39;8.90;52.70
55064;DHT22;40963;52.168;21.296;2024-03-08T11:37:10;8.90;51.60
55064;DHT22;40963;52.168;21.296;2024-03-08T11:39:39;8.90;51.30
55064;DHT22;40963;52.168;21.296;2024-03-08T11:42:05;8.90;51.30
55064;DHT22;40963;52.168;21.296;2024-03-08T11:44:32;9.00;50.60
55064;DHT22;40963;52.168;21.296;2024-03-08T11:46:57;8.90;49.40
55064;DHT22;40963;52.168;21.296;2024-03-08T11:49:23;8.80;49.00
55064;DHT22;40963;52.168;21.296;2024-03-08T11:51:52;8.80;49.30
55064;DHT22;40963;52.168;21.296;2024-03-08T11:54:18;8.90;48.80
55064;DHT22;40963;52.168;21.296;2024-03-08T11:56:44;9.00;47.80
55064;DHT22;40963;52.168;21.296;2024-03-08T11:59:12;9.10;46.20
55064;DHT22;40963;52.168;21.296;2024-03-08T12:01:41;9.20;45.50
55064;DHT22;40963;52.168;21.296;2024-03-08T12:04:06;9.20;45.20
55064;DHT22;40963;52.168;21.296;2024-03-08T12:06:38;9.40;44.40
55064;DHT22;40963;52.168;21.296;2024-03-08T12:09:07;9.40;44.40
55064;DHT22;40963;52.168;21.296;2024-03-08T12:11:34;9.50;44.70
55064;DHT22;40963;52.168;21.296;2024-03-08T12:14:01;9.60;44.90
55064;DHT22;40963;52.168;21.296;2024-03-08T12:16:27;9.60;44.50
55064;DHT22;40963;52.168;21.296;2024-03-08T12:18:53;9.60;44.20
55064;DHT22;40963;52.168;21.296;2024-03-08T12:21:21;9.70;44.20
55064;DHT22;40963;52.168;21.296;2024-03-08T12:24:05;9.80;44.10
55064;DHT22;40963;52.168;21.296;2024-03-08T12:26:34;9.80;43.40
55064;DHT22;40963;52.168;21.296;2024-03-08T12:29:24;9.80;43.60
55064;DHT22;40963;52.168;21.296;2024-03-08T12:31:58;9.80;44.10
55064;DHT22;40963;52.168;21.296;2024-03-08T12:34:24;9.90;44.40
55064;DHT22;40963;52.168;21.296;2024-03-08T12:36:51;10.00;44.40
55064;DHT22;40963;52.168;21.296;2024-03-08T12:39:20;10.00;43.90
55064;DHT22;40963;52.168;21.296;2024-03-08T12:41:55;10.00;43.90
55064;DHT22;40963;52.168;21.296;2024-03-08T12:44:22;10.10;44.00
55064;DHT22;40963;52.168;21.296;2024-03-08T12:46:48;10.10;44.00
55064;DHT22;40963;52.168;21.296;2024-03-08T12:49:14;10.10;44.10
55064;DHT22;40963;52.168;21.296;2024-03-08T12:51:44;10.20;43.80
55064;DHT22;40963;52.168;21.296;2024-03-08T12:54:09;10.20;43.90
55064;DHT22;40963;52.168;21.296;2024-03-08T12:56:36;10.30;43.80
55064;DHT22;40963;52.168;21.296;2024-03-08T12:59:03;10.20;42.90
55064;DHT22;40963;52.168;21.296;2024-03-08T13:01:30;10.10;43.10
55064;DHT22;40963;52.168;21.296;2024-03-08T13:03:57;10.20;43.30
55064;DHT22;40963;52.168;21.296;2024-03-08T13:06:24;10.20;43.00
55064;DHT22;40963;52.168;21.296;2024-03-08T13:08:50;10.20;43.00
55064;DHT22;40963;52.168;21.296;2024-03-08T13:11:17;10.10;43.50
55064;DHT22;40963;52.168;21.296;2024-03-08T13:13:44;10.00;43.60
55064;DHT22;40963;52.168;21.296;2024-03-08T13:16:10;10.00;43.80
55064;DHT22;40963;52.168;21.296;2024-03-08T13:18:37;9.80;44.20
55064;DHT22;40963;52.168;21.296;2024-03-08T13:21:03;9.70;44.80
55064;DHT22;40963;52.168;21.296;2024-03-08T13:23:34;9.50;45.10
55064;DHT22;40963;52.168;21.296;2024-03-08T13:26:08;9.50;45.10
55064;DHT22;40963;52.168;21.296;2024-03-08T13:28:33;9.50;45.30
55064;DHT22;40963;52.168;21.296;2024-03-08T13:31:04;9.50;44.80
55064;DHT22;40963;52.168;21.296;2024-03-08T13:33:33;9.50;45.20
55064;DHT22;40963;52.168;21.296;2024-03-08T13:36:04;9.50;45.20
55064;DHT22;40963;52.168;21.296;2024-03-08T13:38:32;9.50;45.20
55064;DHT22;40963;52.168;21.296;2024-03-08T13:40:58;9.60;45.50
55064;DHT22;40963;52.168;21.296;2024-03-08T13:43:24;9.60;45.70
55064;DHT22;40963;52.168;21.296;2024-03-08T13:45:49;9.70;45.10
55064;DHT22;40963;52.168;21.296;2024-03-08T13:48:15;9.70;45.00
55064;DHT22;40963;52.168;21.296;2024-03-08T13:50:41;9.70;44.80
55064;DHT22;40963;52.168;21.296;2024-03-08T13:53:07;9.70;45.00
55064;DHT22;40963;52.168;21.296;2024-03-08T13:55:35;9.70;44.80
55064;DHT22;40963;52.168;21.296;2024-03-08T13:58:00;9.80;44.90
55064;DHT22;40963;52.168;21.296;2024-03-08T14:00:26;9.80;45.10
55064;DHT22;40963;52.168;21.296;2024-03-08T14:02:58;9.80;45.70
55064;DHT22;40963;52.168;21.296;2024-03-08T14:05:24;9.80;44.80
55064;DHT22;40963;52.168;21.296;2024-03-08T14:07:49;9.80;45.20
55064;DHT22;40963;52.168;21.296;2024-03-08T14:10:15;9.80;44.90
55064;DHT22;40963;52.168;21.296;2024-03-08T14:12:42;9.80;44.90
55064;DHT22;40963;52.168;21.296;2024-03-08T14:15:09;9.80;45.90
55064;DHT22;40963;52.168;21.296;2024-03-08T14:17:36;9.70;45.10
55064;DHT22;40963;52.168;21.296;2024-03-08T14:20:02;9.70;45.10
55064;DHT22;40963;52.168;21.296;2024-03-08T14:22:29;9.60;46.00
55064;DHT22;40963;52.168;21.296;2024-03-08T14:24:56;9.70;46.30
55064;DHT22;40963;52.168;21.296;2024-03-08T14:27:22;9.70;46.40
55064;DHT22;40963;52.168;21.296;2024-03-08T14:29:48;9.70;46.30
55064;DHT22;40963;52.168;21.296;2024-03-08T14:32:13;9.70;45.90
55064;DHT22;40963;52.168;21.296;2024-03-08T14:34:39;9.80;46.00
55064;DHT22;40963;52.168;21.296;2024-03-08T14:37:04;9.80;45.80
55064;DHT22;40963;52.168;21.296;2024-03-08T14:39:33;9.70;45.60
55064;DHT22;40963;52.168;21.296;2024-03-08T14:42:00;9.70;45.80
55064;DHT22;40963;52.168;21.296;2024-03-08T14:44:32;9.70;45.70
55064;DHT22;40963;52.168;21.296;2024-03-08T14:46:57;9.70;46.00
55064;DHT22;40963;52.168;21.296;2024-03-08T14:49:24;9.80;46.60
55064;DHT22;40963;52.168;21.296;2024-03-08T14:51:51;9.80;46.30
55064;DHT22;40963;52.168;21.296;2024-03-08T14:54:17;9.80;46.10
55064;DHT22;40963;52.168;21.296;2024-03-08T14:56:48;9.80;45.70
55064;DHT22;40963;52.168;21.296;2024-03-08T14:59:16;9.80;46.20
55064;DHT22;40963;52.168;21.296;2024-03-08T15:01:41;9.90;46.30
55064;DHT22;40963;52.168;21.296;2024-03-08T15:04:09;9.90;46.10
55064;DHT22;40963;52.168;21.296;2024-03-08T15:06:39;9.90;46.30
55064;DHT22;40963;52.168;21.296;2024-03-08T15:09:05;9.90;46.30
55064;DHT22;40963;52.168;21.296;2024-03-08T15:11:45;9.90;46.40
55064;DHT22;40963;52.168;21.296;2024-03-08T15:14:11;9.90;46.40
55064;DHT22;40963;52.168;21.296;2024-03-08T15:16:37;9.90;46.40
55064;DHT22;40963;52.168;21.296;2024-03-08T15:19:05;9.90;46.50
55064;DHT22;40963;52.168;21.296;2024-03-08T15:21:31;9.90;46.50
55064;DHT22;40963;52.168;21.296;2024-03-08T15:23:56;9.90;46.40
55064;DHT22;40963;52.168;21.296;2024-03-08T15:26:22;9.90;46.40
55064;DHT22;40963;52.168;21.296;2024-03-08T15:28:48;9.80;46.60
55064;DHT22;40963;52.168;21.296;2024-03-08T15:31:17;9.80;47.00
55064;DHT22;40963;52.168;21.296;2024-03-08T15:33:42;9.70;47.20